Time;durP1;ratioP1;P1;durP2;ratioP2;P2;SDS_P1;SDS_P2;PMS_P1;PMS_P2;Temp;Humidity;BMP_temperature;BMP_pressure;BME280_temperature;BME280_humidity;BME280_pressure;Samples;Min_cycle;Max_cycle;Signal;HPM_P1;HPM_P2
2022/10/28 00:00:47;;;;;;;1.88;0.63;;;23.90;62.90;;;;;;5010947;28;20202;-86
2022/10/28 00:03:18;;;;;;;5.75;0.73;;;23.80;63.30;;;;;;4994778;28;20281;-84
2022/10/28 00:05:49;;;;;;;1.23;0.60;;;23.90;62.40;;;;;;5012290;28;20190;-83
2022/10/28 00:08:22;;;;;;;2.30;0.70;;;24.00;63.50;;;;;;5013345;28;20229;-89
2022/10/28 00:10:53;;;;;;;6.65;0.60;;;24.10;63.90;;;;;;5010283;28;20641;-85
2022/10/28 00:13:25;;;;;;;3.47;0.70;;;24.20;62.20;;;;;;5007893;28;20199;-83
2022/10/28 00:15:56;;;;;;;3.28;0.77;;;24.40;61.20;;;;;;5013031;28;20695;-86
2022/10/28 00:18:27;;;;;;;1.83;0.60;;;24.30;58.00;;;;;;5005020;28;20725;-87
2022/10/28 00:21:03;;;;;;;1.85;0.80;;;24.30;58.80;;;;;;5009065;28;20224;-87
2022/10/28 00:23:36;;;;;;;2.00;0.60;;;24.40;59.20;;;;;;5011092;28;20220;-85
2022/10/28 00:26:13;;;;;;;4.45;0.50;;;24.40;57.40;;;;;;5012944;28;20312;-86
2022/10/28 00:28:50;;;;;;;4.88;0.68;;;24.40;58.10;;;;;;5015800;28;20569;-86
2022/10/28 00:31:23;;;;;;;2.65;0.60;;;24.50;56.70;;;;;;5009551;28;20193;-88
2022/10/28 00:33:56;;;;;;;2.63;0.60;;;24.50;59.40;;;;;;5001435;28;20204;-88
2022/10/28 00:36:30;;;;;;;1.67;0.60;;;24.40;58.60;;;;;;5008638;28;20279;-88
2022/10/28 00:39:04;;;;;;;2.92;0.50;;;24.50;57.00;;;;;;5007295;28;20210;-93
2022/10/28 00:41:38;;;;;;;1.02;0.45;;;24.50;57.40;;;;;;5009885;28;20657;-91
2022/10/28 00:44:41;;;;;;;1.73;0.50;;;24.60;57.00;;;;;;5012791;28;20201;-96
2022/10/28 00:47:18;;;;;;;0.88;0.40;;;24.70;57.40;;;;;;5014220;28;20252;-95
2022/10/28 00:49:52;;;;;;;3.42;0.55;;;24.80;56.90;;;;;;5024586;28;20258;-95
2022/10/28 00:52:27;;;;;;;1.67;0.45;;;24.80;56.20;;;;;;5028882;28;20236;-95
2022/10/28 00:55:06;;;;;;;3.10;0.50;;;24.90;54.50;;;;;;5021192;28;20229;-96
2022/10/28 00:57:43;;;;;;;3.08;0.50;;;24.90;53.30;;;;;;5023772;28;20644;-96
2022/10/28 01:00:28;;;;;;;2.40;0.50;;;25.00;55.30;;;;;;5025350;28;20198;-93
2022/10/28 01:03:03;;;;;;;2.08;0.60;;;25.00;53.30;;;;;;5011933;28;20233;-93
2022/10/28 01:05:39;;;;;;;1.52;0.55;;;25.10;52.50;;;;;;5019599;28;20200;-94
2022/10/28 01:08:10;;;;;;;2.72;0.60;;;25.00;50.10;;;;;;5036339;28;20302;-96
2022/10/28 01:11:12;;;;;;;2.03;0.60;;;24.90;49.90;;;;;;5031364;28;20205;-94
2022/10/28 01:13:57;;;;;;;3.50;0.60;;;25.00;47.80;;;;;;5012147;28;20221;-94
2022/10/28 01:16:36;;;;;;;2.88;0.73;;;25.00;45.90;;;;;;5006575;28;20273;-95
2022/10/28 01:19:37;;;;;;;1.13;0.50;;;24.90;46.20;;;;;;4999163;28;20202;-95
2022/10/28 01:22:23;;;;;;;4.93;0.70;;;24.90;46.40;;;;;;5023807;28;20352;-94
2022/10/28 01:25:30;;;;;;;3.28;0.50;;;24.80;46.30;;;;;;5009282;28;20281;-94
2022/10/28 01:28:34;;;;;;;1.95;0.63;;;25.00;46.60;;;;;;5012762;28;20233;-94
2022/10/28 01:31:32;;;;;;;4.15;0.55;;;25.00;47.20;;;;;;4997269;28;20197;-93
2022/10/28 01:34:12;;;;;;;3.30;0.40;;;25.10;47.40;;;;;;5015790;28;20198;-94
2022/10/28 01:36:49;;;;;;;1.10;0.40;;;25.10;47.20;;;;;;5015730;28;20213;-92
2022/10/28 01:39:33;;;;;;;1.75;0.60;;;25.30;48.10;;;;;;5016456;28;20212;-94
2022/10/28 01:42:24;;;;;;;1.65;0.57;;;25.60;46.10;;;;;;5021175;28;20289;-91
2022/10/28 01:45:03;;;;;;;1.45;0.60;;;25.70;45.60;;;;;;5021727;28;20589;-90
2022/10/28 01:47:44;;;;;;;2.15;0.68;;;25.80;45.40;;;;;;4969013;28;20260;-92
2022/10/28 01:50:22;;;;;;;1.17;0.43;;;25.60;45.40;;;;;;5012191;28;20228;-92
2022/10/28 01:52:55;;;;;;;1.50;0.40;;;25.60;43.90;;;;;;5019447;28;20314;-92
2022/10/28 01:55:30;;;;;;;3.75;0.65;;;25.60;44.70;;;;;;5036920;28;20204;-91
2022/10/28 01:58:06;;;;;;;1.02;0.55;;;25.80;45.30;;;;;;5033899;28;20711;-93
2022/10/28 02:00:38;;;;;;;2.20;0.65;;;25.80;44.30;;;;;;4998183;28;20215;-90
2022/10/28 02:03:13;;;;;;;1.75;0.28;;;25.80;43.50;;;;;;5016076;28;20203;-87
2022/10/28 02:05:47;;;;;;;1.75;0.55;;;25.70;44.20;;;;;;5021242;28;20198;-93
2022/10/28 02:08:52;;;;;;;3.47;0.70;;;25.70;44.10;;;;;;5013388;28;20870;-91
2022/10/28 02:11:47;;;;;;;3.45;0.50;;;25.60;40.10;;;;;;5008698;28;20201;-91
2022/10/28 02:14:34;;;;;;;0.90;0.40;;;25.70;41.70;;;;;;5004218;28;20199;-91
2022/10/28 02:17:14;;;;;;;1.67;0.77;;;26.00;41.80;;;;;;5008839;28;20207;-93
2022/10/28 02:19:54;;;;;;;1.02;0.40;;;26.10;41.60;;;;;;4961939;28;20198;-92
2022/10/28 02:22:31;;;;;;;1.85;0.40;;;26.20;42.30;;;;;;4980971;28;20198;-91
2022/10/28 02:25:12;;;;;;;3.47;0.47;;;26.30;41.10;;;;;;5013343;28;20567;-91
2022/10/28 02:27:52;;;;;;;2.85;0.47;;;26.10;40.40;;;;;;5012427;28;20232;-91
2022/10/28 02:30:26;;;;;;;2.10;0.50;;;26.00;42.30;;;;;;5012071;28;20225;-92
2022/10/28 02:33:02;;;;;;;1.90;0.60;;;26.30;43.00;;;;;;4999120;28;20225;-93
2022/10/28 02:35:39;;;;;;;2.05;0.80;;;26.40;41.00;;;;;;5011283;28;20193;-93
2022/10/28 02:38:16;;;;;;;1.65;0.68;;;26.40;42.40;;;;;;5023471;28;20695;-90
2022/10/28 02:40:56;;;;;;;2.95;0.73;;;26.30;39.40;;;;;;5018562;28;20201;-91
2022/10/28 02:43:29;;;;;;;2.38;0.52;;;26.20;39.30;;;;;;4995010;28;20281;-90
2022/10/28 02:46:05;;;;;;;0.95;0.47;;;25.90;39.00;;;;;;5019046;28;20215;-93
2022/10/28 02:48:41;;;;;;;1.77;0.43;;;25.90;40.20;;;;;;5023077;28;20232;-92
2022/10/28 02:51:22;;;;;;;1.65;0.40;;;26.20;40.80;;;;;;5009729;28;20235;-90
2022/10/28 02:54:11;;;;;;;1.48;1.00;;;26.20;38.70;;;;;;5008113;28;20189;-92
2022/10/28 02:56:49;;;;;;;0.65;0.40;;;26.00;39.40;;;;;;4999464;28;20666;-96
2022/10/28 02:59:21;;;;;;;0.65;0.40;;;26.20;40.90;;;;;;5015347;28;20202;-96
2022/10/28 03:04:37;;;;;;;0.45;0.40;;;26.40;40.80;;;;;;5013050;28;20630;-95
2022/10/28 03:07:11;;;;;;;2.15;0.40;;;26.70;40.10;;;;;;5027605;28;20206;-93
2022/10/28 03:09:43;;;;;;;0.73;0.30;;;26.60;40.30;;;;;;5016770;28;20671;-95
2022/10/28 03:12:13;;;;;;;4.05;0.32;;;26.90;40.20;;;;;;5025977;28;20194;-92
2022/10/28 03:14:46;;;;;;;1.85;0.52;;;27.10;39.00;;;;;;5013343;28;20238;-93
2022/10/28 03:17:17;;;;;;;1.23;0.30;;;27.00;39.70;;;;;;5013093;28;20287;-94
2022/10/28 03:19:52;;;;;;;2.25;0.40;;;27.10;41.30;;;;;;5014916;28;20206;-96
2022/10/28 03:22:27;;;;;;;3.28;0.47;;;27.40;40.90;;;;;;5000546;28;20564;-91
2022/10/28 03:24:58;;;;;;;1.65;0.30;;;27.40;39.70;;;;;;5014576;28;20200;-91
2022/10/28 03:27:30;;;;;;;4.57;0.38;;;27.50;39.10;;;;;;5016586;28;20210;-96
2022/10/28 03:30:22;;;;;;;5.35;0.30;;;27.40;37.30;;;;;;5020873;28;20202;-96
2022/10/28 03:32:55;;;;;;;2.75;0.30;;;27.30;37.00;;;;;;5003521;28;20221;-96
2022/10/28 03:35:27;;;;;;;0.88;0.25;;;27.30;37.90;;;;;;5009888;28;20249;-96
2022/10/28 03:38:02;;;;;;;2.20;0.40;;;27.30;36.80;;;;;;5041039;28;20303;-93
2022/10/28 03:40:34;;;;;;;1.30;0.50;;;27.40;38.50;;;;;;5035138;28;20295;-90
2022/10/28 03:45:59;;;;;;;3.55;0.40;;;27.00;38.90;;;;;;5024998;28;20186;-96
2022/10/28 03:51:15;;;;;;;1.40;0.40;;;26.70;38.50;;;;;;5013501;28;20242;-91
2022/10/28 03:53:50;;;;;;;1.95;0.30;;;26.50;40.30;;;;;;5012119;28;20668;-91
2022/10/28 03:56:22;;;;;;;0.80;0.30;;;26.20;40.30;;;;;;5012651;28;20201;-91
2022/10/28 03:58:54;;;;;;;0.98;0.30;;;25.60;40.80;;;;;;5014079;28;20661;-91
2022/10/28 04:01:25;;;;;;;1.20;0.38;;;25.80;42.70;;;;;;5016020;28;20212;-96
2022/10/28 04:03:56;;;;;;;0.63;0.30;;;26.40;41.40;;;;;;5020757;28;20229;-93
2022/10/28 04:06:28;;;;;;;0.55;0.35;;;26.50;40.10;;;;;;5025281;28;20266;-96
2022/10/28 04:09:04;;;;;;;1.02;0.30;;;26.60;40.30;;;;;;5030149;28;20218;-94
2022/10/28 04:11:35;;;;;;;0.88;0.30;;;26.50;40.20;;;;;;5033273;28;20206;-94
2022/10/28 04:14:06;;;;;;;3.30;0.50;;;26.20;40.00;;;;;;5020613;28;20643;-95
2022/10/28 04:19:29;;;;;;;0.95;0.28;;;26.40;40.30;;;;;;5021489;28;20237;-96
2022/10/28 04:22:01;;;;;;;2.28;0.50;;;26.60;40.30;;;;;;5009799;28;20212;-94
2022/10/28 04:24:38;;;;;;;2.67;0.50;;;26.80;38.10;;;;;;5021042;28;20198;-94
2022/10/28 04:27:12;;;;;;;0.45;0.30;;;26.40;37.80;;;;;;5009446;28;20265;-94
2022/10/28 04:29:48;;;;;;;0.50;0.30;;;26.60;37.10;;;;;;5021268;28;20218;-93
2022/10/28 04:32:23;;;;;;;0.43;0.30;;;26.50;38.10;;;;;;5013107;28;20205;-95
2022/10/28 04:35:09;;;;;;;0.65;0.32;;;27.10;39.10;;;;;;5017582;28;20247;-94
2022/10/28 04:37:42;;;;;;;2.20;0.38;;;27.40;39.30;;;;;;4980711;28;20206;-95
2022/10/28 04:40:22;;;;;;;1.35;0.22;;;27.50;37.20;;;;;;5009492;28;20616;-94
2022/10/28 04:42:53;;;;;;;0.65;0.30;;;27.50;38.30;;;;;;4997961;28;20195;-90
2022/10/28 04:45:24;;;;;;;2.42;0.30;;;27.80;36.20;;;;;;5021831;28;20227;-90
2022/10/28 04:48:02;;;;;;;2.80;0.35;;;27.80;35.00;;;;;;5023484;28;20312;-88
2022/10/28 04:50:35;;;;;;;2.47;0.30;;;27.80;37.20;;;;;;4985843;28;20194;-87
2022/10/28 04:53:09;;;;;;;0.50;0.28;;;28.10;37.00;;;;;;5001528;28;20234;-86
2022/10/28 04:55:42;;;;;;;2.63;0.40;;;28.20;37.40;;;;;;5014920;28;20621;-86
2022/10/28 04:58:13;;;;;;;3.42;0.45;;;28.70;38.60;;;;;;5013181;28;20216;-87
2022/10/28 05:00:45;;;;;;;1.77;0.30;;;28.70;37.10;;;;;;5014764;28;20202;-88
2022/10/28 05:03:15;;;;;;;0.95;0.28;;;28.70;36.60;;;;;;5010056;28;20199;-87
2022/10/28 05:05:46;;;;;;;5.43;0.40;;;28.60;36.20;;;;;;5006062;28;20197;-86
2022/10/28 05:08:17;;;;;;;4.18;0.47;;;28.50;35.40;;;;;;5019425;28;20232;-86
2022/10/28 05:10:50;;;;;;;2.15;0.52;;;28.30;35.00;;;;;;5013994;28;20206;-86
2022/10/28 05:13:23;;;;;;;0.35;0.25;;;28.20;36.10;;;;;;5009161;28;20198;-91
2022/10/28 05:15:55;;;;;;;2.45;0.50;;;28.50;36.70;;;;;;5032343;28;20186;-91
2022/10/28 05:18:27;;;;;;;0.22;0.22;;;28.70;35.20;;;;;;5022006;28;20288;-92
2022/10/28 05:20:58;;;;;;;1.75;0.32;;;28.50;34.90;;;;;;5034216;28;20245;-92
2022/10/28 05:23:29;;;;;;;1.88;0.45;;;28.70;35.70;;;;;;4982626;28;20208;-86
2022/10/28 05:26:02;;;;;;;0.70;0.30;;;28.70;35.50;;;;;;5012753;28;20548;-88
2022/10/28 05:28:33;;;;;;;5.18;0.50;;;28.90;35.70;;;;;;5013590;28;20229;-87
2022/10/28 05:31:04;;;;;;;0.88;0.35;;;28.90;34.30;;;;;;5003352;28;20202;-88
2022/10/28 05:33:35;;;;;;;1.85;0.50;;;28.80;34.80;;;;;;4998931;28;20225;-87
2022/10/28 05:36:06;;;;;;;3.05;0.40;;;28.60;35.10;;;;;;5012302;28;20202;-87
2022/10/28 05:38:37;;;;;;;3.08;0.40;;;28.40;35.50;;;;;;5012535;28;20194;-87
2022/10/28 05:41:10;;;;;;;1.70;0.40;;;29.00;35.50;;;;;;5013290;28;20198;-87
2022/10/28 05:43:42;;;;;;;0.73;0.30;;;29.20;33.90;;;;;;5010672;28;20198;-88
2022/10/28 05:46:13;;;;;;;0.80;0.40;;;29.00;34.20;;;;;;5005402;28;20199;-93
2022/10/28 05:48:45;;;;;;;1.95;0.43;;;29.00;35.30;;;;;;4993420;28;20304;-92
2022/10/28 05:51:18;;;;;;;0.68;0.30;;;29.00;34.80;;;;;;4984970;28;20657;-91
2022/10/28 05:53:50;;;;;;;1.75;0.25;;;29.10;34.90;;;;;;5015506;28;20273;-94
2022/10/28 05:56:24;;;;;;;2.90;0.73;;;29.30;35.30;;;;;;4997637;28;20202;-94
2022/10/28 05:58:55;;;;;;;3.65;3.22;;;29.50;33.40;;;;;;5016196;28;20202;-93
2022/10/28 06:01:26;;;;;;;2.45;0.43;;;29.80;34.00;;;;;;5015483;28;20198;-91
2022/10/28 06:03:59;;;;;;;3.13;0.70;;;30.00;33.30;;;;;;5008837;28;20733;-93
2022/10/28 06:06:34;;;;;;;2.47;0.50;;;30.30;32.00;;;;;;4993913;28;20677;-88
2022/10/28 06:09:05;;;;;;;2.53;0.60;;;30.20;31.60;;;;;;4997802;28;20226;-88
2022/10/28 06:11:39;;;;;;;1.65;0.85;;;29.60;31.80;;;;;;4996850;28;20237;-89
2022/10/28 06:14:10;;;;;;;1.25;0.95;;;29.90;32.90;;;;;;4997122;28;20208;-86
2022/10/28 06:16:42;;;;;;;1.65;0.45;;;29.80;31.80;;;;;;5009769;28;20194;-87
2022/10/28 06:19:13;;;;;;;2.67;0.43;;;29.70;32.70;;;;;;5023467;28;20217;-88
2022/10/28 06:21:45;;;;;;;0.80;0.40;;;30.10;33.30;;;;;;5029628;28;20214;-88
2022/10/28 06:24:18;;;;;;;3.80;0.45;;;30.10;31.90;;;;;;5014732;28;20198;-87
2022/10/28 06:26:52;;;;;;;1.00;0.57;;;30.80;32.10;;;;;;5003819;28;20307;-88
2022/10/28 06:29:24;;;;;;;4.90;0.70;;;31.10;31.80;;;;;;5033251;28;20307;-88
2022/10/28 06:31:55;;;;;;;2.15;0.60;;;30.60;30.70;;;;;;5026951;28;20273;-87
2022/10/28 06:34:26;;;;;;;1.75;0.40;;;30.10;31.20;;;;;;5012643;28;20205;-87
2022/10/28 06:36:57;;;;;;;3.60;0.50;;;30.50;31.00;;;;;;5010345;28;20198;-87
2022/10/28 06:39:29;;;;;;;2.17;0.40;;;30.00;31.10;;;;;;4998283;28;20226;-85
2022/10/28 06:42:01;;;;;;;1.13;0.45;;;29.70;32.40;;;;;;4996553;28;20205;-88
2022/10/28 06:44:32;;;;;;;1.27;0.40;;;29.80;32.30;;;;;;5009298;28;20213;-86
2022/10/28 06:47:03;;;;;;;0.52;0.32;;;29.60;32.20;;;;;;5018822;28;20214;-88
2022/10/28 06:49:34;;;;;;;2.58;0.40;;;29.30;32.00;;;;;;5014875;28;20317;-88
2022/10/28 06:52:05;;;;;;;3.15;0.47;;;28.90;32.60;;;;;;5016263;28;20281;-89
2022/10/28 06:54:35;;;;;;;0.95;0.57;;;29.20;32.20;;;;;;5016504;28;20245;-88
2022/10/28 06:57:09;;;;;;;0.43;0.25;;;29.20;32.70;;;;;;5024015;28;20204;-88
2022/10/28 06:59:42;;;;;;;1.40;0.30;;;29.10;33.00;;;;;;5025871;28;20233;-88
2022/10/28 07:02:14;;;;;;;1.17;0.43;;;29.60;32.40;;;;;;5034001;28;20273;-89
2022/10/28 07:04:47;;;;;;;1.58;0.52;;;29.70;32.20;;;;;;5012159;28;20237;-91
2022/10/28 07:07:19;;;;;;;2.80;0.70;;;29.40;31.40;;;;;;4999060;28;20218;-91
2022/10/28 07:09:51;;;;;;;0.55;0.40;;;28.70;32.10;;;;;;5018410;28;20222;-89
2022/10/28 07:12:24;;;;;;;1.27;0.50;;;28.80;32.70;;;;;;4997835;28;20198;-91
2022/10/28 07:14:55;;;;;;;1.20;0.50;;;28.90;32.60;;;;;;5013470;28;20670;-89
2022/10/28 07:17:26;;;;;;;1.92;0.50;;;28.70;33.70;;;;;;5015411;28;20292;-87
2022/10/28 07:19:59;;;;;;;1.35;0.50;;;28.50;33.30;;;;;;5010295;28;20763;-88
2022/10/28 07:22:29;;;;;;;1.60;0.60;;;28.10;33.40;;;;;;5012851;28;20285;-88
2022/10/28 07:25:01;;;;;;;1.50;0.68;;;27.50;34.20;;;;;;5050274;28;20205;-89
2022/10/28 07:27:35;;;;;;;2.30;0.70;;;27.20;34.90;;;;;;5019057;28;20189;-88
2022/10/28 07:30:07;;;;;;;3.55;0.50;;;26.80;34.80;;;;;;5023562;28;20569;-90
2022/10/28 07:32:38;;;;;;;1.50;0.85;;;26.40;35.20;;;;;;5004511;28;20202;-94
2022/10/28 07:35:09;;;;;;;1.40;1.00;;;25.90;36.10;;;;;;5013782;28;20316;-90
2022/10/28 07:37:42;;;;;;;1.92;0.85;;;25.70;36.80;;;;;;5013083;28;20206;-89
2022/10/28 07:40:13;;;;;;;2.17;0.70;;;25.30;36.80;;;;;;5012024;28;20300;-89
2022/10/28 07:42:49;;;;;;;1.02;0.60;;;25.10;37.70;;;;;;5012469;28;20202;-89
2022/10/28 07:45:22;;;;;;;1.52;0.60;;;25.00;38.80;;;;;;5015588;28;20186;-91
2022/10/28 07:47:54;;;;;;;2.05;0.90;;;24.90;38.30;;;;;;5021349;28;20193;-91
2022/10/28 07:50:26;;;;;;;3.03;1.90;;;24.70;38.80;;;;;;5033518;28;20769;-88
2022/10/28 07:52:58;;;;;;;0.68;0.57;;;24.50;38.50;;;;;;5001890;28;20664;-90
2022/10/28 07:55:29;;;;;;;5.28;3.03;;;24.40;39.10;;;;;;5009831;28;20262;-89
2022/10/28 07:58:04;;;;;;;3.22;1.73;;;24.30;39.40;;;;;;5029494;28;20229;-89
2022/10/28 08:00:35;;;;;;;2.45;0.90;;;24.20;39.80;;;;;;5016478;28;20224;-89
2022/10/28 08:03:07;;;;;;;2.42;1.10;;;24.10;41.00;;;;;;5015723;28;20212;-89
2022/10/28 08:05:39;;;;;;;2.50;1.30;;;24.10;40.70;;;;;;5015830;28;20672;-88
2022/10/28 08:08:09;;;;;;;3.70;1.42;;;24.10;40.90;;;;;;5011348;28;20207;-88
2022/10/28 08:10:40;;;;;;;3.22;1.40;;;24.20;40.50;;;;;;5002762;28;20222;-89
2022/10/28 08:13:14;;;;;;;3.85;2.42;;;24.00;40.90;;;;;;5016105;28;20212;-88
2022/10/28 08:15:45;;;;;;;1.17;0.77;;;23.90;40.50;;;;;;5016915;28;20244;-89
2022/10/28 08:18:16;;;;;;;2.53;0.98;;;23.80;40.20;;;;;;5016685;28;20198;-88
2022/10/28 08:20:49;;;;;;;1.75;0.63;;;23.50;40.80;;;;;;5015624;28;20697;-88
2022/10/28 08:23:22;;;;;;;2.85;0.80;;;23.50;41.20;;;;;;4982846;28;20230;-89
2022/10/28 08:25:54;;;;;;;4.00;1.05;;;23.40;41.60;;;;;;5022837;28;20197;-90
2022/10/28 08:28:29;;;;;;;4.47;1.42;;;23.20;41.40;;;;;;5055031;28;20201;-92
2022/10/28 08:31:04;;;;;;;5.68;0.68;;;23.10;41.50;;;;;;5039677;28;20739;-90
2022/10/28 08:33:36;;;;;;;2.08;0.80;;;23.10;42.00;;;;;;5011337;28;20229;-89
2022/10/28 08:36:08;;;;;;;3.95;0.75;;;23.10;42.80;;;;;;5019334;28;20199;-89
2022/10/28 08:38:39;;;;;;;0.70;0.40;;;23.00;42.40;;;;;;5009934;28;20202;-90
2022/10/28 08:41:22;;;;;;;1.30;1.20;;;23.00;43.00;;;;;;5016444;28;20206;-90
2022/10/28 08:44:18;;;;;;;4.90;3.55;;;22.90;42.60;;;;;;5001506;28;20206;-89
2022/10/28 08:47:01;;;;;;;1.00;0.63;;;22.80;43.40;;;;;;4996585;28;20220;-89
2022/10/28 08:49:36;;;;;;;1.30;0.80;;;22.70;43.00;;;;;;5015580;28;20225;-88
2022/10/28 08:52:13;;;;;;;1.90;0.68;;;22.60;43.40;;;;;;5015566;28;20267;-90
2022/10/28 08:54:49;;;;;;;1.20;0.65;;;22.50;43.60;;;;;;5015659;28;20197;-89
2022/10/28 08:57:24;;;;;;;1.80;0.90;;;22.50;43.80;;;;;;5007186;28;20190;-90
2022/10/28 08:59:58;;;;;;;5.22;2.17;;;22.50;43.60;;;;;;5018610;28;20205;-90
2022/10/28 09:02:34;;;;;;;3.75;0.90;;;22.50;43.90;;;;;;5027423;28;20586;-90
2022/10/28 09:05:19;;;;;;;2.75;0.60;;;22.50;44.60;;;;;;4999479;28;20205;-91
2022/10/28 09:07:53;;;;;;;1.73;0.65;;;22.40;44.60;;;;;;5020615;28;20209;-92
2022/10/28 09:10:52;;;;;;;0.93;0.63;;;22.50;44.90;;;;;;5016581;28;20236;-92
2022/10/28 09:13:30;;;;;;;1.25;0.50;;;22.60;45.00;;;;;;5016609;28;20557;-92
2022/10/28 09:23:34;;;;;;;;;;;;;;;;;;;;;
2022/10/28 09:32:40;;;;;;;0.55;0.40;;;22.30;47.30;;;;;;4998365;28;20199;-92
2022/10/28 09:35:48;;;;;;;0.93;0.60;;;22.40;47.60;;;;;;5016153;28;20222;-95
2022/10/28 09:44:57;;;;;;;2.42;1.10;;;22.30;47.80;;;;;;5024978;28;20727;-92
2022/10/28 09:50:48;;;;;;;0.75;0.52;;;22.20;47.50;;;;;;5027010;28;20263;-91
2022/10/28 09:56:25;;;;;;;2.00;0.35;;;22.20;48.20;;;;;;5019909;28;20190;-92
2022/10/28 09:59:13;;;;;;;0.98;0.32;;;22.20;48.50;;;;;;5023016;28;20280;-92
2022/10/28 10:02:00;;;;;;;1.17;0.30;;;22.30;49.20;;;;;;5007029;28;20198;-91
2022/10/28 10:04:51;;;;;;;1.33;0.60;;;22.20;49.50;;;;;;5011778;28;20208;-90
2022/10/28 10:07:35;;;;;;;1.05;0.43;;;22.30;49.00;;;;;;5022590;28;20220;-92
2022/10/28 10:10:33;;;;;;;0.68;0.35;;;22.20;49.50;;;;;;5014433;28;20256;-92
2022/10/28 10:13:07;;;;;;;0.70;0.40;;;22.20;49.40;;;;;;5014839;28;20194;-92
2022/10/28 10:15:47;;;;;;;1.55;0.40;;;22.20;48.90;;;;;;5016283;28;20666;-91
2022/10/28 10:18:57;;;;;;;0.30;0.30;;;22.10;48.50;;;;;;5018432;28;20202;-90
2022/10/28 10:21:48;;;;;;;1.08;0.32;;;22.00;49.10;;;;;;5018980;28;20232;-90
2022/10/28 10:24:33;;;;;;;2.70;0.35;;;21.90;50.00;;;;;;5017118;28;20277;-91
2022/10/28 10:27:17;;;;;;;0.68;0.30;;;21.80;50.50;;;;;;5010893;28;20216;-92
2022/10/28 10:29:51;;;;;;;1.00;0.30;;;21.80;51.60;;;;;;5021547;28;20217;-93
2022/10/28 10:32:41;;;;;;;1.33;0.30;;;21.70;51.90;;;;;;5017804;28;20213;-92
2022/10/28 10:35:22;;;;;;;1.73;0.45;;;21.70;51.50;;;;;;5013608;28;20200;-90
2022/10/28 10:38:07;;;;;;;0.88;0.30;;;21.70;51.00;;;;;;5034294;28;20204;-93
2022/10/28 10:43:49;;;;;;;0.38;0.22;;;21.70;51.60;;;;;;5003353;28;20206;-91
2022/10/28 10:46:26;;;;;;;0.65;0.32;;;21.70;51.80;;;;;;5012436;28;20205;-92
2022/10/28 10:49:14;;;;;;;3.60;0.50;;;21.60;51.30;;;;;;5027152;28;20205;-93
2022/10/28 10:51:55;;;;;;;0.20;0.20;;;21.50;51.70;;;;;;5035689;28;20272;-92
2022/10/28 10:54:28;;;;;;;2.92;0.50;;;21.60;51.90;;;;;;5014924;28;20232;-92
2022/10/28 10:57:10;;;;;;;2.10;0.45;;;21.50;51.00;;;;;;5008212;28;20229;-91
2022/10/28 10:59:41;;;;;;;2.28;0.35;;;21.40;51.90;;;;;;5014221;28;20205;-91
2022/10/28 11:02:25;;;;;;;1.33;0.57;;;21.40;51.20;;;;;;5011874;28;20198;-93
2022/10/28 11:05:01;;;;;;;0.30;0.30;;;21.40;51.60;;;;;;5013558;28;20280;-92
2022/10/28 11:07:39;;;;;;;0.50;0.40;;;21.40;51.60;;;;;;5003062;28;20216;-90
2022/10/28 11:10:43;;;;;;;1.05;0.20;;;21.40;52.70;;;;;;5023573;28;20222;-91
2022/10/28 11:17:33;;;;;;;1.10;0.40;;;21.30;53.00;;;;;;5048470;28;20188;-91
2022/10/28 11:20:27;;;;;;;1.83;0.43;;;21.40;53.50;;;;;;5038585;28;20225;-92
2022/10/28 11:23:42;;;;;;;1.30;0.50;;;21.30;53.80;;;;;;5028207;28;20229;-92
2022/10/28 11:26:37;;;;;;;2.67;0.50;;;21.30;53.90;;;;;;5033592;28;20210;-92
2022/10/28 11:29:14;;;;;;;1.50;0.40;;;21.20;54.10;;;;;;5029299;28;20185;-93
2022/10/28 11:32:28;;;;;;;1.05;0.50;;;21.10;54.70;;;;;;5020848;28;20272;-90
2022/10/28 11:35:52;;;;;;;1.33;0.47;;;21.10;54.50;;;;;;4993560;28;20202;-92
2022/10/28 11:38:54;;;;;;;0.88;0.40;;;21.10;55.20;;;;;;5002961;28;20266;-95
2022/10/28 11:41:36;;;;;;;0.95;0.40;;;21.20;55.40;;;;;;5011238;28;20205;-93
2022/10/28 11:44:40;;;;;;;1.23;0.30;;;21.20;56.10;;;;;;5019755;28;20235;-96
2022/10/28 11:47:52;;;;;;;1.75;0.50;;;21.20;56.50;;;;;;5012326;28;20204;-92
2022/10/28 11:53:56;;;;;;;0.60;0.38;;;21.00;56.30;;;;;;5016624;28;20229;-90
2022/10/28 11:56:38;;;;;;;0.95;0.38;;;21.00;56.70;;;;;;5013631;28;20233;-92
2022/10/28 12:05:39;;;;;;;0.30;0.30;;;20.90;59.10;;;;;;5024575;28;20198;-92
2022/10/28 12:08:35;;;;;;;0.98;0.50;;;20.90;59.70;;;;;;5007797;28;20259;-92
2022/10/28 12:11:21;;;;;;;1.40;0.40;;;20.90;59.10;;;;;;5004549;28;20230;-93
2022/10/28 12:14:16;;;;;;;1.08;0.35;;;20.80;59.30;;;;;;5028596;28;20209;-93
2022/10/28 12:19:50;;;;;;;0.85;0.40;;;20.80;59.60;;;;;;5024557;28;20174;-91
2022/10/28 12:25:35;;;;;;;1.17;0.40;;;20.70;59.40;;;;;;5020398;28;20268;-90
2022/10/28 12:28:32;;;;;;;0.40;0.30;;;20.70;59.30;;;;;;5051750;28;20197;-89
2022/10/28 12:31:05;;;;;;;1.05;0.30;;;20.60;59.60;;;;;;5050514;28;20703;-90
2022/10/28 12:33:42;;;;;;;0.52;0.30;;;20.50;60.80;;;;;;5042375;28;20243;-90
2022/10/28 12:36:23;;;;;;;1.67;0.40;;;20.50;59.80;;;;;;5027175;28;20206;-94
2022/10/28 12:39:04;;;;;;;0.73;0.40;;;20.50;60.50;;;;;;5022418;28;20309;-94
2022/10/28 12:41:54;;;;;;;2.90;0.30;;;20.50;61.40;;;;;;5035279;28;20193;-95
2022/10/28 12:44:30;;;;;;;1.38;0.30;;;20.50;61.30;;;;;;5039373;28;20202;-93
2022/10/28 12:47:12;;;;;;;1.42;0.40;;;20.50;61.20;;;;;;5037943;28;20189;-93
2022/10/28 12:49:59;;;;;;;0.85;0.30;;;20.40;62.10;;;;;;5042923;28;20201;-93
2022/10/28 12:52:42;;;;;;;0.77;0.10;;;20.50;62.70;;;;;;5040310;28;20240;-95
2022/10/28 12:55:35;;;;;;;0.45;0.30;;;20.50;61.90;;;;;;5005389;28;20202;-95
2022/10/28 12:58:18;;;;;;;1.38;0.30;;;20.40;62.70;;;;;;5020307;28;20208;-96
2022/10/28 13:00:58;;;;;;;1.50;0.40;;;20.50;63.30;;;;;;5027130;28;20229;-93
2022/10/28 13:03:29;;;;;;;0.65;0.20;;;20.60;62.20;;;;;;5036529;28;20193;-91
2022/10/28 13:06:19;;;;;;;1.10;0.40;;;20.50;61.90;;;;;;5016545;28;20214;-90
2022/10/28 13:09:33;;;;;;;3.80;0.50;;;20.40;62.80;;;;;;5017230;28;20228;-90
2022/10/28 13:12:30;;;;;;;1.20;0.20;;;20.50;62.50;;;;;;5005650;28;20614;-90
2022/10/28 13:15:29;;;;;;;1.13;0.30;;;20.40;63.20;;;;;;5013663;28;20209;-90
2022/10/28 13:18:29;;;;;;;2.17;0.25;;;20.40;63.20;;;;;;5013509;28;20198;-90
2022/10/28 13:21:10;;;;;;;0.65;0.30;;;20.50;63.90;;;;;;5004138;28;20229;-89
2022/10/28 13:23:51;;;;;;;1.05;0.40;;;20.50;63.80;;;;;;5001212;28;20193;-90
2022/10/28 13:26:28;;;;;;;2.95;1.15;;;20.60;63.80;;;;;;5015388;28;20580;-90
2022/10/28 13:29:01;;;;;;;0.82;0.30;;;20.60;65.40;;;;;;5012011;28;20664;-90
2022/10/28 13:31:41;;;;;;;1.23;0.20;;;20.60;66.80;;;;;;5009424;28;20676;-90
2022/10/28 13:34:17;;;;;;;0.30;0.30;;;20.60;66.10;;;;;;5012765;28;20288;-94
2022/10/28 13:36:59;;;;;;;1.05;0.30;;;20.60;65.80;;;;;;5013949;28;20687;-94
2022/10/28 13:39:45;;;;;;;1.15;0.32;;;20.60;64.10;;;;;;5017845;28;20194;-95
2022/10/28 13:42:47;;;;;;;0.40;0.40;;;20.60;64.40;;;;;;5021093;28;20205;-95
2022/10/28 13:45:51;;;;;;;0.65;0.38;;;20.60;65.60;;;;;;5033474;28;20217;-94
2022/10/28 13:48:54;;;;;;;0.88;0.43;;;20.60;65.40;;;;;;5051642;28;20219;-96
2022/10/28 13:51:51;;;;;;;1.88;0.68;;;20.60;67.40;;;;;;5012922;28;20218;-95
2022/10/28 13:54:34;;;;;;;1.00;0.28;;;20.60;66.90;;;;;;5017589;28;20277;-93
2022/10/28 13:57:11;;;;;;;0.93;0.38;;;20.40;67.30;;;;;;4997869;28;20202;-90
2022/10/28 13:59:54;;;;;;;0.80;0.20;;;20.40;68.30;;;;;;4997025;28;20219;-91
2022/10/28 14:02:29;;;;;;;0.45;0.30;;;20.30;68.50;;;;;;5014398;28;20215;-92
2022/10/28 14:05:05;;;;;;;0.60;0.30;;;20.40;68.10;;;;;;5014197;28;20190;-90
2022/10/28 14:07:54;;;;;;;2.25;0.30;;;20.40;69.60;;;;;;5021321;28;20222;-96
2022/10/28 14:10:29;;;;;;;2.65;0.45;;;20.40;68.80;;;;;;5022553;28;20209;-95
2022/10/28 14:13:04;;;;;;;0.20;0.13;;;20.30;69.70;;;;;;4984100;28;20261;-96
2022/10/28 14:15:38;;;;;;;0.47;0.40;;;20.30;69.60;;;;;;5019279;28;20205;-96
2022/10/28 14:18:24;;;;;;;2.20;0.20;;;20.30;70.80;;;;;;5002130;28;20194;-93
2022/10/28 14:21:00;;;;;;;1.40;0.45;;;20.30;70.70;;;;;;5023670;28;20228;-96
2022/10/28 14:24:18;;;;;;;1.27;0.47;;;20.30;70.70;;;;;;5042547;28;20668;-93
2022/10/28 14:27:31;;;;;;;2.83;0.40;;;20.30;71.20;;;;;;4979846;28;20199;-93
2022/10/28 14:30:23;;;;;;;1.73;0.30;;;20.30;70.90;;;;;;5008248;28;20228;-93
2022/10/28 14:33:23;;;;;;;0.50;0.30;;;20.30;71.00;;;;;;5016268;28;20244;-90
2022/10/28 14:36:24;;;;;;;0.20;0.20;;;20.30;71.70;;;;;;5033705;28;20201;-90
2022/10/28 14:39:23;;;;;;;2.28;0.73;;;20.20;71.70;;;;;;5031363;28;20206;-92
2022/10/28 14:42:11;;;;;;;1.00;0.20;;;20.30;72.20;;;;;;4970968;28;20576;-91
2022/10/28 14:45:03;;;;;;;1.40;0.30;;;20.40;73.60;;;;;;4993985;28;20202;-91
2022/10/28 14:48:01;;;;;;;2.35;0.30;;;20.40;73.40;;;;;;5017271;28;20234;-89
2022/10/28 14:50:43;;;;;;;0.68;0.30;;;20.30;74.20;;;;;;5006941;28;20232;-95